sensor_id;sensor_type;location;lat;lon;timestamp;P1;durP1;ratioP1;P2;durP2;ratioP2
21675;SDS011;10999;51.332;9.458;2022-11-03T00:01:43;10.13;;;2.88;;
21675;SDS011;10999;51.332;9.458;2022-11-03T00:04:13;9.38;;;2.72;;
21675;SDS011;10999;51.332;9.458;2022-11-03T00:06:41;7.10;;;2.63;;
21675;SDS011;10999;51.332;9.458;2022-11-03T00:09:09;6.95;;;2.40;;
21675;SDS011;10999;51.332;9.458;2022-11-03T00:11:38;7.75;;;2.20;;
21675;SDS011;10999;51.332;9.458;2022-11-03T00:14:07;6.28;;;2.00;;
21675;SDS011;10999;51.332;9.458;2022-11-03T00:16:35;8.57;;;2.45;;
21675;SDS011;10999;51.332;9.458;2022-11-03T00:19:02;5.97;;;2.22;;
21675;SDS011;10999;51.332;9.458;2022-11-03T00:21:29;10.63;;;2.95;;
21675;SDS011;10999;51.332;9.458;2022-11-03T00:23:57;8.10;;;2.30;;
21675;SDS011;10999;51.332;9.458;2022-11-03T00:26:24;8.45;;;2.38;;
21675;SDS011;10999;51.332;9.458;2022-11-03T00:28:54;7.28;;;2.58;;
21675;SDS011;10999;51.332;9.458;2022-11-03T00:33:53;10.50;;;2.63;;
21675;SDS011;10999;51.332;9.458;2022-11-03T00:36:21;10.35;;;2.70;;
21675;SDS011;10999;51.332;9.458;2022-11-03T00:38:52;10.80;;;2.55;;
21675;SDS011;10999;51.332;9.458;2022-11-03T00:41:19;8.02;;;2.95;;
21675;SDS011;10999;51.332;9.458;2022-11-03T00:43:48;8.30;;;2.22;;
21675;SDS011;10999;51.332;9.458;2022-11-03T00:46:15;9.77;;;2.58;;
21675;SDS011;10999;51.332;9.458;2022-11-03T00:48:43;11.18;;;3.17;;
21675;SDS011;10999;51.332;9.458;2022-11-03T00:53:55;8.10;;;3.20;;
21675;SDS011;10999;51.332;9.458;2022-11-03T00:56:24;7.40;;;2.60;;
21675;SDS011;10999;51.332;9.458;2022-11-03T00:58:52;7.25;;;2.63;;
21675;SDS011;10999;51.332;9.458;2022-11-03T01:01:24;6.28;;;2.45;;
21675;SDS011;10999;51.332;9.458;2022-11-03T01:06:40;9.68;;;2.92;;
21675;SDS011;10999;51.332;9.458;2022-11-03T01:09:27;9.30;;;2.55;;
21675;SDS011;10999;51.332;9.458;2022-11-03T01:12:00;9.10;;;2.95;;
21675;SDS011;10999;51.332;9.458;2022-11-03T01:14:46;8.50;;;2.58;;
21675;SDS011;10999;51.332;9.458;2022-11-03T01:19:45;8.10;;;2.70;;
21675;SDS011;10999;51.332;9.458;2022-11-03T01:22:13;8.35;;;2.80;;
21675;SDS011;10999;51.332;9.458;2022-11-03T01:24:41;7.15;;;3.05;;
21675;SDS011;10999;51.332;9.458;2022-11-03T01:27:09;7.65;;;2.65;;
21675;SDS011;10999;51.332;9.458;2022-11-03T01:29:38;10.30;;;2.92;;
21675;SDS011;10999;51.332;9.458;2022-11-03T01:32:05;7.53;;;3.33;;
21675;SDS011;10999;51.332;9.458;2022-11-03T01:34:33;10.30;;;2.80;;
21675;SDS011;10999;51.332;9.458;2022-11-03T01:37:00;8.73;;;2.42;;
21675;SDS011;10999;51.332;9.458;2022-11-03T01:39:27;9.50;;;2.80;;
21675;SDS011;10999;51.332;9.458;2022-11-03T01:41:54;8.40;;;2.40;;
21675;SDS011;10999;51.332;9.458;2022-11-03T01:46:50;9.60;;;2.17;;
21675;SDS011;10999;51.332;9.458;2022-11-03T01:49:37;6.35;;;2.80;;
21675;SDS011;10999;51.332;9.458;2022-11-03T01:54:36;6.57;;;2.28;;
21675;SDS011;10999;51.332;9.458;2022-11-03T01:57:08;13.50;;;3.13;;
21675;SDS011;10999;51.332;9.458;2022-11-03T01:59:38;7.47;;;2.55;;
21675;SDS011;10999;51.332;9.458;2022-11-03T02:02:06;7.95;;;2.90;;
21675;SDS011;10999;51.332;9.458;2022-11-03T02:04:33;9.00;;;2.72;;
21675;SDS011;10999;51.332;9.458;2022-11-03T02:07:18;7.25;;;2.38;;
21675;SDS011;10999;51.332;9.458;2022-11-03T02:09:55;9.35;;;2.58;;
21675;SDS011;10999;51.332;9.458;2022-11-03T02:12:22;8.15;;;2.17;;
21675;SDS011;10999;51.332;9.458;2022-11-03T02:14:53;7.22;;;2.47;;
21675;SDS011;10999;51.332;9.458;2022-11-03T02:17:24;8.48;;;2.30;;
21675;SDS011;10999;51.332;9.458;2022-11-03T02:19:58;9.38;;;2.50;;
21675;SDS011;10999;51.332;9.458;2022-11-03T02:28:11;6.72;;;2.10;;
21675;SDS011;10999;51.332;9.458;2022-11-03T02:30:52;10.70;;;2.53;;
21675;SDS011;10999;51.332;9.458;2022-11-03T02:33:58;8.07;;;2.72;;
21675;SDS011;10999;51.332;9.458;2022-11-03T02:36:35;6.22;;;1.92;;
21675;SDS011;10999;51.332;9.458;2022-11-03T02:39:10;9.57;;;2.33;;
21675;SDS011;10999;51.332;9.458;2022-11-03T02:41:39;5.78;;;1.48;;
21675;SDS011;10999;51.332;9.458;2022-11-03T02:44:10;7.25;;;1.63;;
21675;SDS011;10999;51.332;9.458;2022-11-03T02:46:43;8.63;;;1.95;;
21675;SDS011;10999;51.332;9.458;2022-11-03T02:49:12;5.93;;;1.88;;
21675;SDS011;10999;51.332;9.458;2022-11-03T02:51:39;13.65;;;2.00;;
21675;SDS011;10999;51.332;9.458;2022-11-03T02:54:18;7.28;;;1.65;;
21675;SDS011;10999;51.332;9.458;2022-11-03T02:56:52;6.25;;;1.60;;
21675;SDS011;10999;51.332;9.458;2022-11-03T02:59:23;8.23;;;2.38;;
21675;SDS011;10999;51.332;9.458;2022-11-03T03:02:16;11.38;;;2.08;;
21675;SDS011;10999;51.332;9.458;2022-11-03T03:04:50;9.68;;;2.08;;
21675;SDS011;10999;51.332;9.458;2022-11-03T03:07:23;8.23;;;1.70;;
21675;SDS011;10999;51.332;9.458;2022-11-03T03:10:01;5.68;;;1.70;;
21675;SDS011;10999;51.332;9.458;2022-11-03T03:12:40;5.60;;;1.50;;
21675;SDS011;10999;51.332;9.458;2022-11-03T03:15:16;6.35;;;1.50;;
21675;SDS011;10999;51.332;9.458;2022-11-03T03:20:22;6.53;;;1.70;;
21675;SDS011;10999;51.332;9.458;2022-11-03T03:25:51;5.93;;;1.38;;
21675;SDS011;10999;51.332;9.458;2022-11-03T03:28:30;7.65;;;1.77;;
21675;SDS011;10999;51.332;9.458;2022-11-03T03:31:04;10.30;;;1.98;;
21675;SDS011;10999;51.332;9.458;2022-11-03T03:33:34;6.50;;;1.67;;
21675;SDS011;10999;51.332;9.458;2022-11-03T03:36:04;5.38;;;1.45;;
21675;SDS011;10999;51.332;9.458;2022-11-03T03:38:38;7.65;;;1.70;;
21675;SDS011;10999;51.332;9.458;2022-11-03T03:41:07;5.03;;;1.50;;
21675;SDS011;10999;51.332;9.458;2022-11-03T03:43:38;4.93;;;1.55;;
21675;SDS011;10999;51.332;9.458;2022-11-03T03:46:09;7.55;;;1.48;;
21675;SDS011;10999;51.332;9.458;2022-11-03T03:48:38;5.95;;;1.77;;
21675;SDS011;10999;51.332;9.458;2022-11-03T03:51:05;6.68;;;1.70;;
21675;SDS011;10999;51.332;9.458;2022-11-03T03:53:32;7.90;;;1.77;;
21675;SDS011;10999;51.332;9.458;2022-11-03T03:55:59;5.85;;;1.50;;
21675;SDS011;10999;51.332;9.458;2022-11-03T03:58:25;5.28;;;1.70;;
21675;SDS011;10999;51.332;9.458;2022-11-03T04:00:52;5.55;;;1.40;;
21675;SDS011;10999;51.332;9.458;2022-11-03T04:03:20;5.78;;;1.60;;
21675;SDS011;10999;51.332;9.458;2022-11-03T04:05:48;5.00;;;1.52;;
21675;SDS011;10999;51.332;9.458;2022-11-03T04:08:15;6.20;;;1.73;;
21675;SDS011;10999;51.332;9.458;2022-11-03T04:10:43;5.55;;;1.80;;
21675;SDS011;10999;51.332;9.458;2022-11-03T04:13:28;5.28;;;1.60;;
21675;SDS011;10999;51.332;9.458;2022-11-03T04:16:14;5.65;;;1.40;;
21675;SDS011;10999;51.332;9.458;2022-11-03T04:18:59;9.43;;;1.55;;
21675;SDS011;10999;51.332;9.458;2022-11-03T04:21:45;5.68;;;1.77;;
21675;SDS011;10999;51.332;9.458;2022-11-03T04:24:33;5.47;;;1.92;;
21675;SDS011;10999;51.332;9.458;2022-11-03T04:27:19;4.88;;;1.58;;
21675;SDS011;10999;51.332;9.458;2022-11-03T04:32:34;6.05;;;1.60;;
21675;SDS011;10999;51.332;9.458;2022-11-03T04:35:08;9.65;;;2.08;;
21675;SDS011;10999;51.332;9.458;2022-11-03T04:37:40;5.32;;;1.70;;
21675;SDS011;10999;51.332;9.458;2022-11-03T04:42:43;6.72;;;1.60;;
21675;SDS011;10999;51.332;9.458;2022-11-03T04:45:16;5.63;;;1.67;;
21675;SDS011;10999;51.332;9.458;2022-11-03T04:47:47;7.20;;;1.90;;
21675;SDS011;10999;51.332;9.458;2022-11-03T04:50:16;5.85;;;2.00;;
21675;SDS011;10999;51.332;9.458;2022-11-03T04:52:45;5.03;;;1.58;;
21675;SDS011;10999;51.332;9.458;2022-11-03T04:55:22;7.63;;;1.50;;
21675;SDS011;10999;51.332;9.458;2022-11-03T04:57:56;5.95;;;1.52;;
21675;SDS011;10999;51.332;9.458;2022-11-03T05:00:25;5.10;;;1.52;;
21675;SDS011;10999;51.332;9.458;2022-11-03T05:02:52;5.88;;;1.35;;
21675;SDS011;10999;51.332;9.458;2022-11-03T05:05:22;6.60;;;1.67;;
21675;SDS011;10999;51.332;9.458;2022-11-03T05:07:51;4.32;;;1.60;;
21675;SDS011;10999;51.332;9.458;2022-11-03T05:10:22;9.32;;;1.92;;
21675;SDS011;10999;51.332;9.458;2022-11-03T05:12:52;3.60;;;1.20;;
21675;SDS011;10999;51.332;9.458;2022-11-03T05:18:21;5.38;;;1.77;;
21675;SDS011;10999;51.332;9.458;2022-11-03T05:20:53;5.28;;;1.20;;
21675;SDS011;10999;51.332;9.458;2022-11-03T05:23:23;4.22;;;1.40;;
21675;SDS011;10999;51.332;9.458;2022-11-03T05:25:52;5.53;;;1.95;;
21675;SDS011;10999;51.332;9.458;2022-11-03T05:28:23;7.85;;;1.75;;
21675;SDS011;10999;51.332;9.458;2022-11-03T05:30:55;4.90;;;1.27;;
21675;SDS011;10999;51.332;9.458;2022-11-03T05:33:28;4.72;;;1.20;;
21675;SDS011;10999;51.332;9.458;2022-11-03T05:35:57;4.47;;;1.63;;
21675;SDS011;10999;51.332;9.458;2022-11-03T05:38:29;4.53;;;1.40;;
21675;SDS011;10999;51.332;9.458;2022-11-03T05:40:58;4.40;;;1.50;;
21675;SDS011;10999;51.332;9.458;2022-11-03T05:43:25;6.07;;;1.95;;
21675;SDS011;10999;51.332;9.458;2022-11-03T05:45:54;4.75;;;1.50;;
21675;SDS011;10999;51.332;9.458;2022-11-03T05:50:55;8.95;;;1.63;;
21675;SDS011;10999;51.332;9.458;2022-11-03T05:55:56;7.97;;;1.85;;
21675;SDS011;10999;51.332;9.458;2022-11-03T05:58:26;8.15;;;2.00;;
21675;SDS011;10999;51.332;9.458;2022-11-03T06:03:55;7.00;;;2.00;;
21675;SDS011;10999;51.332;9.458;2022-11-03T06:06:31;5.40;;;1.70;;
21675;SDS011;10999;51.332;9.458;2022-11-03T06:09:08;8.75;;;2.40;;
21675;SDS011;10999;51.332;9.458;2022-11-03T06:11:39;10.23;;;2.28;;
21675;SDS011;10999;51.332;9.458;2022-11-03T06:14:12;5.55;;;1.80;;
21675;SDS011;10999;51.332;9.458;2022-11-03T06:16:45;8.40;;;1.90;;
21675;SDS011;10999;51.332;9.458;2022-11-03T06:19:22;6.97;;;1.75;;
21675;SDS011;10999;51.332;9.458;2022-11-03T06:21:50;6.30;;;1.40;;
21675;SDS011;10999;51.332;9.458;2022-11-03T06:24:19;7.72;;;1.70;;
21675;SDS011;10999;51.332;9.458;2022-11-03T06:26:50;7.18;;;1.80;;
21675;SDS011;10999;51.332;9.458;2022-11-03T06:29:18;8.10;;;1.90;;
21675;SDS011;10999;51.332;9.458;2022-11-03T06:31:47;5.25;;;1.77;;
21675;SDS011;10999;51.332;9.458;2022-11-03T06:37:04;4.63;;;1.55;;
21675;SDS011;10999;51.332;9.458;2022-11-03T06:39:40;4.22;;;1.80;;
21675;SDS011;10999;51.332;9.458;2022-11-03T06:42:11;6.43;;;2.10;;
21675;SDS011;10999;51.332;9.458;2022-11-03T06:44:43;7.93;;;2.10;;
21675;SDS011;10999;51.332;9.458;2022-11-03T06:47:14;5.05;;;1.95;;
21675;SDS011;10999;51.332;9.458;2022-11-03T06:50:06;5.22;;;1.65;;
21675;SDS011;10999;51.332;9.458;2022-11-03T06:52:55;5.30;;;1.67;;
21675;SDS011;10999;51.332;9.458;2022-11-03T06:55:24;7.47;;;2.00;;
21675;SDS011;10999;51.332;9.458;2022-11-03T06:57:58;9.10;;;2.00;;
21675;SDS011;10999;51.332;9.458;2022-11-03T07:00:29;11.55;;;3.00;;
21675;SDS011;10999;51.332;9.458;2022-11-03T07:06:35;10.95;;;2.83;;
21675;SDS011;10999;51.332;9.458;2022-11-03T07:08:50;7.90;;;2.58;;
21675;SDS011;10999;51.332;9.458;2022-11-03T07:11:20;10.32;;;2.60;;
21675;SDS011;10999;51.332;9.458;2022-11-03T07:13:50;8.88;;;2.05;;
21675;SDS011;10999;51.332;9.458;2022-11-03T07:16:31;9.82;;;2.25;;
21675;SDS011;10999;51.332;9.458;2022-11-03T07:19:02;10.85;;;2.60;;
21675;SDS011;10999;51.332;9.458;2022-11-03T07:21:36;6.88;;;1.98;;
21675;SDS011;10999;51.332;9.458;2022-11-03T07:24:54;9.15;;;2.40;;
21675;SDS011;10999;51.332;9.458;2022-11-03T07:29:56;11.05;;;2.40;;
21675;SDS011;10999;51.332;9.458;2022-11-03T07:32:27;8.73;;;2.75;;
21675;SDS011;10999;51.332;9.458;2022-11-03T07:37:51;6.93;;;2.47;;
21675;SDS011;10999;51.332;9.458;2022-11-03T07:40:21;11.20;;;3.58;;
21675;SDS011;10999;51.332;9.458;2022-11-03T07:42:49;8.90;;;3.08;;
21675;SDS011;10999;51.332;9.458;2022-11-03T07:45:29;9.15;;;2.40;;
21675;SDS011;10999;51.332;9.458;2022-11-03T07:48:10;9.25;;;2.88;;
21675;SDS011;10999;51.332;9.458;2022-11-03T07:53:53;6.32;;;2.25;;
21675;SDS011;10999;51.332;9.458;2022-11-03T07:56:26;8.18;;;2.55;;
21675;SDS011;10999;51.332;9.458;2022-11-03T07:58:59;10.20;;;3.25;;
21675;SDS011;10999;51.332;9.458;2022-11-03T08:01:39;9.75;;;2.92;;
21675;SDS011;10999;51.332;9.458;2022-11-03T08:04:09;7.15;;;2.55;;
21675;SDS011;10999;51.332;9.458;2022-11-03T08:06:38;9.23;;;2.67;;
21675;SDS011;10999;51.332;9.458;2022-11-03T08:09:04;7.25;;;2.28;;
21675;SDS011;10999;51.332;9.458;2022-11-03T08:11:32;7.85;;;2.03;;
21675;SDS011;10999;51.332;9.458;2022-11-03T08:13:58;10.60;;;2.53;;
21675;SDS011;10999;51.332;9.458;2022-11-03T08:16:25;7.13;;;2.33;;
21675;SDS011;10999;51.332;9.458;2022-11-03T08:18:52;9.18;;;2.67;;
21675;SDS011;10999;51.332;9.458;2022-11-03T08:21:18;14.90;;;2.42;;
21675;SDS011;10999;51.332;9.458;2022-11-03T08:23:45;11.02;;;2.63;;
21675;SDS011;10999;51.332;9.458;2022-11-03T08:26:13;10.35;;;2.92;;
21675;SDS011;10999;51.332;9.458;2022-11-03T08:28:40;10.38;;;3.05;;
21675;SDS011;10999;51.332;9.458;2022-11-03T08:31:07;10.35;;;2.63;;
21675;SDS011;10999;51.332;9.458;2022-11-03T08:33:38;8.73;;;2.88;;
21675;SDS011;10999;51.332;9.458;2022-11-03T08:36:05;14.02;;;3.00;;
21675;SDS011;10999;51.332;9.458;2022-11-03T08:38:33;8.75;;;2.78;;
21675;SDS011;10999;51.332;9.458;2022-11-03T08:41:00;12.68;;;2.80;;
21675;SDS011;10999;51.332;9.458;2022-11-03T08:43:27;13.23;;;2.88;;
21675;SDS011;10999;51.332;9.458;2022-11-03T08:45:54;8.10;;;2.30;;
21675;SDS011;10999;51.332;9.458;2022-11-03T08:48:21;10.88;;;2.90;;
21675;SDS011;10999;51.332;9.458;2022-11-03T08:50:52;10.23;;;2.33;;
21675;SDS011;10999;51.332;9.458;2022-11-03T08:53:20;11.00;;;2.70;;
21675;SDS011;10999;51.332;9.458;2022-11-03T08:55:48;9.10;;;2.45;;
21675;SDS011;10999;51.332;9.458;2022-11-03T08:58:14;11.32;;;2.75;;
21675;SDS011;10999;51.332;9.458;2022-11-03T09:00:41;9.10;;;2.60;;
21675;SDS011;10999;51.332;9.458;2022-11-03T09:03:08;8.35;;;2.50;;
21675;SDS011;10999;51.332;9.458;2022-11-03T09:05:35;13.50;;;2.70;;
21675;SDS011;10999;51.332;9.458;2022-11-03T09:08:01;9.02;;;2.45;;
21675;SDS011;10999;51.332;9.458;2022-11-03T09:10:48;7.72;;;2.35;;
21675;SDS011;10999;51.332;9.458;2022-11-03T09:13:15;7.65;;;2.22;;
21675;SDS011;10999;51.332;9.458;2022-11-03T09:15:41;9.02;;;2.50;;
21675;SDS011;10999;51.332;9.458;2022-11-03T09:18:09;7.20;;;2.30;;
21675;SDS011;10999;51.332;9.458;2022-11-03T09:20:36;10.27;;;2.78;;
21675;SDS011;10999;51.332;9.458;2022-11-03T09:23:03;8.70;;;2.28;;
21675;SDS011;10999;51.332;9.458;2022-11-03T09:25:29;8.25;;;2.53;;
21675;SDS011;10999;51.332;9.458;2022-11-03T09:27:56;9.35;;;2.67;;
21675;SDS011;10999;51.332;9.458;2022-11-03T09:30:22;6.32;;;2.05;;
21675;SDS011;10999;51.332;9.458;2022-11-03T09:32:49;6.95;;;2.42;;
21675;SDS011;10999;51.332;9.458;2022-11-03T09:35:16;6.15;;;2.00;;
21675;SDS011;10999;51.332;9.458;2022-11-03T09:37:42;7.85;;;2.58;;
21675;SDS011;10999;51.332;9.458;2022-11-03T09:40:09;8.15;;;2.47;;
21675;SDS011;10999;51.332;9.458;2022-11-03T09:42:38;8.38;;;2.05;;
21675;SDS011;10999;51.332;9.458;2022-11-03T09:45:06;11.13;;;2.30;;
21675;SDS011;10999;51.332;9.458;2022-11-03T09:47:35;6.82;;;2.50;;
21675;SDS011;10999;51.332;9.458;2022-11-03T09:50:04;9.77;;;2.50;;
21675;SDS011;10999;51.332;9.458;2022-11-03T09:52:32;6.80;;;2.20;;
21675;SDS011;10999;51.332;9.458;2022-11-03T09:55:01;7.88;;;1.90;;
21675;SDS011;10999;51.332;9.458;2022-11-03T09:57:28;12.02;;;2.15;;
21675;SDS011;10999;51.332;9.458;2022-11-03T09:59:54;8.07;;;2.05;;
21675;SDS011;10999;51.332;9.458;2022-11-03T10:02:27;10.77;;;2.80;;
21675;SDS011;10999;51.332;9.458;2022-11-03T10:04:56;5.90;;;1.98;;
21675;SDS011;10999;51.332;9.458;2022-11-03T10:07:30;8.15;;;1.90;;
21675;SDS011;10999;51.332;9.458;2022-11-03T10:09:57;12.05;;;3.90;;
21675;SDS011;10999;51.332;9.458;2022-11-03T10:12:26;7.70;;;2.20;;
21675;SDS011;10999;51.332;9.458;2022-11-03T10:14:56;8.57;;;1.90;;
21675;SDS011;10999;51.332;9.458;2022-11-03T10:17:28;9.98;;;2.08;;
21675;SDS011;10999;51.332;9.458;2022-11-03T10:19:55;7.57;;;1.92;;
21675;SDS011;10999;51.332;9.458;2022-11-03T10:22:23;7.72;;;2.10;;
21675;SDS011;10999;51.332;9.458;2022-11-03T10:25:10;5.80;;;2.22;;
21675;SDS011;10999;51.332;9.458;2022-11-03T10:30:47;8.68;;;1.95;;
21675;SDS011;10999;51.332;9.458;2022-11-03T10:33:37;9.30;;;2.50;;
21675;SDS011;10999;51.332;9.458;2022-11-03T10:38:45;6.82;;;1.80;;
21675;SDS011;10999;51.332;9.458;2022-11-03T10:44:00;7.97;;;2.35;;
21675;SDS011;10999;51.332;9.458;2022-11-03T10:46:40;9.07;;;1.83;;
21675;SDS011;10999;51.332;9.458;2022-11-03T10:49:43;9.27;;;2.55;;
21675;SDS011;10999;51.332;9.458;2022-11-03T10:52:20;5.60;;;1.95;;
21675;SDS011;10999;51.332;9.458;2022-11-03T10:54:51;7.32;;;2.00;;
21675;SDS011;10999;51.332;9.458;2022-11-03T10:57:21;8.05;;;2.35;;
21675;SDS011;10999;51.332;9.458;2022-11-03T10:59:49;3.40;;;1.17;;
21675;SDS011;10999;51.332;9.458;2022-11-03T11:02:21;8.18;;;1.67;;
21675;SDS011;10999;51.332;9.458;2022-11-03T11:04:53;7.93;;;1.50;;
21675;SDS011;10999;51.332;9.458;2022-11-03T11:07:27;7.55;;;1.92;;
21675;SDS011;10999;51.332;9.458;2022-11-03T11:10:33;8.10;;;1.90;;
21675;SDS011;10999;51.332;9.458;2022-11-03T11:15:47;5.15;;;1.50;;
21675;SDS011;10999;51.332;9.458;2022-11-03T11:20:59;6.55;;;1.40;;
21675;SDS011;10999;51.332;9.458;2022-11-03T11:23:47;4.95;;;1.65;;
21675;SDS011;10999;51.332;9.458;2022-11-03T11:31:35;6.55;;;1.55;;
21675;SDS011;10999;51.332;9.458;2022-11-03T11:36:36;9.57;;;2.15;;
21675;SDS011;10999;51.332;9.458;2022-11-03T11:39:08;8.90;;;1.70;;
21675;SDS011;10999;51.332;9.458;2022-11-03T11:58:03;7.05;;;1.38;;
21675;SDS011;10999;51.332;9.458;2022-11-03T12:00:48;7.35;;;1.40;;
21675;SDS011;10999;51.332;9.458;2022-11-03T12:03:22;6.47;;;1.77;;
21675;SDS011;10999;51.332;9.458;2022-11-03T12:05:52;6.72;;;1.30;;
21675;SDS011;10999;51.332;9.458;2022-11-03T12:08:19;5.45;;;1.63;;
21675;SDS011;10999;51.332;9.458;2022-11-03T12:10:51;8.48;;;1.73;;
21675;SDS011;10999;51.332;9.458;2022-11-03T12:16:25;6.45;;;1.50;;
21675;SDS011;10999;51.332;9.458;2022-11-03T12:18:55;6.05;;;1.45;;
21675;SDS011;10999;51.332;9.458;2022-11-03T12:21:44;6.60;;;1.60;;
21675;SDS011;10999;51.332;9.458;2022-11-03T12:24:25;6.28;;;1.60;;
21675;SDS011;10999;51.332;9.458;2022-11-03T12:26:58;8.43;;;1.80;;
21675;SDS011;10999;51.332;9.458;2022-11-03T12:29:25;7.72;;;1.73;;
21675;SDS011;10999;51.332;9.458;2022-11-03T12:31:52;5.20;;;1.40;;
21675;SDS011;10999;51.332;9.458;2022-11-03T12:34:19;5.95;;;1.88;;
21675;SDS011;10999;51.332;9.458;2022-11-03T12:36:45;7.65;;;1.92;;
21675;SDS011;10999;51.332;9.458;2022-11-03T12:39:18;5.78;;;1.70;;
21675;SDS011;10999;51.332;9.458;2022-11-03T12:41:45;7.57;;;1.55;;
21675;SDS011;10999;51.332;9.458;2022-11-03T12:44:11;5.43;;;1.85;;
21675;SDS011;10999;51.332;9.458;2022-11-03T12:46:38;5.90;;;1.67;;
21675;SDS011;10999;51.332;9.458;2022-11-03T12:49:04;4.78;;;1.58;;
21675;SDS011;10999;51.332;9.458;2022-11-03T12:51:31;6.50;;;1.90;;
21675;SDS011;10999;51.332;9.458;2022-11-03T12:53:58;7.32;;;1.92;;
21675;SDS011;10999;51.332;9.458;2022-11-03T12:56:24;4.15;;;1.23;;
21675;SDS011;10999;51.332;9.458;2022-11-03T12:58:51;6.65;;;1.77;;
21675;SDS011;10999;51.332;9.458;2022-11-03T13:01:18;5.70;;;1.77;;
21675;SDS011;10999;51.332;9.458;2022-11-03T13:03:45;5.57;;;1.70;;
21675;SDS011;10999;51.332;9.458;2022-11-03T13:06:11;7.57;;;1.50;;
21675;SDS011;10999;51.332;9.458;2022-11-03T13:08:39;7.45;;;2.08;;
21675;SDS011;10999;51.332;9.458;2022-11-03T13:11:06;5.80;;;1.70;;
21675;SDS011;10999;51.332;9.458;2022-11-03T13:13:53;4.28;;;1.65;;
21675;SDS011;10999;51.332;9.458;2022-11-03T13:16:20;5.47;;;1.83;;
21675;SDS011;10999;51.332;9.458;2022-11-03T13:18:47;6.65;;;1.52;;
21675;SDS011;10999;51.332;9.458;2022-11-03T13:21:14;8.02;;;1.88;;
21675;SDS011;10999;51.332;9.458;2022-11-03T13:23:41;4.65;;;1.58;;
21675;SDS011;10999;51.332;9.458;2022-11-03T13:26:08;5.93;;;1.92;;
21675;SDS011;10999;51.332;9.458;2022-11-03T13:28:34;5.15;;;1.60;;
21675;SDS011;10999;51.332;9.458;2022-11-03T13:31:01;7.63;;;1.92;;
21675;SDS011;10999;51.332;9.458;2022-11-03T13:33:28;7.75;;;1.70;;
21675;SDS011;10999;51.332;9.458;2022-11-03T13:35:54;5.80;;;1.95;;
21675;SDS011;10999;51.332;9.458;2022-11-03T13:38:21;4.78;;;1.98;;
21675;SDS011;10999;51.332;9.458;2022-11-03T13:40:48;5.50;;;1.70;;
21675;SDS011;10999;51.332;9.458;2022-11-03T13:43:23;5.28;;;1.50;;
21675;SDS011;10999;51.332;9.458;2022-11-03T13:45:49;6.95;;;1.63;;
21675;SDS011;10999;51.332;9.458;2022-11-03T13:48:17;3.83;;;1.42;;
21675;SDS011;10999;51.332;9.458;2022-11-03T13:51:04;6.45;;;1.90;;
21675;SDS011;10999;51.332;9.458;2022-11-03T13:53:31;6.72;;;1.83;;
21675;SDS011;10999;51.332;9.458;2022-11-03T13:56:18;9.20;;;1.77;;
21675;SDS011;10999;51.332;9.458;2022-11-03T13:58:47;8.02;;;1.70;;
21675;SDS011;10999;51.332;9.458;2022-11-03T14:01:34;5.15;;;1.63;;
21675;SDS011;10999;51.332;9.458;2022-11-03T14:04:02;8.27;;;1.95;;
21675;SDS011;10999;51.332;9.458;2022-11-03T14:06:49;5.95;;;1.52;;
21675;SDS011;10999;51.332;9.458;2022-11-03T14:09:16;6.43;;;1.95;;
21675;SDS011;10999;51.332;9.458;2022-11-03T14:11:42;6.18;;;1.50;;
21675;SDS011;10999;51.332;9.458;2022-11-03T14:14:28;9.88;;;2.05;;
21675;SDS011;10999;51.332;9.458;2022-11-03T14:16:54;7.00;;;1.80;;
21675;SDS011;10999;51.332;9.458;2022-11-03T14:19:21;4.32;;;1.52;;
21675;SDS011;10999;51.332;9.458;2022-11-03T14:22:00;7.28;;;1.90;;
21675;SDS011;10999;51.332;9.458;2022-11-03T14:24:27;7.32;;;1.88;;
21675;SDS011;10999;51.332;9.458;2022-11-03T14:26:54;6.68;;;1.90;;
21675;SDS011;10999;51.332;9.458;2022-11-03T14:29:25;7.90;;;1.90;;
21675;SDS011;10999;51.332;9.458;2022-11-03T14:31:52;7.00;;;1.73;;
21675;SDS011;10999;51.332;9.458;2022-11-03T14:34:22;8.13;;;2.38;;
21675;SDS011;10999;51.332;9.458;2022-11-03T14:37:03;5.05;;;1.50;;
21675;SDS011;10999;51.332;9.458;2022-11-03T14:39:37;5.75;;;2.00;;
21675;SDS011;10999;51.332;9.458;2022-11-03T14:42:10;6.63;;;1.80;;
21675;SDS011;10999;51.332;9.458;2022-11-03T14:44:43;7.32;;;1.73;;
21675;SDS011;10999;51.332;9.458;2022-11-03T14:47:17;5.50;;;1.77;;
21675;SDS011;10999;51.332;9.458;2022-11-03T14:49:53;5.93;;;1.70;;
21675;SDS011;10999;51.332;9.458;2022-11-03T14:52:24;5.32;;;1.75;;
21675;SDS011;10999;51.332;9.458;2022-11-03T14:55:04;7.70;;;1.80;;
21675;SDS011;10999;51.332;9.458;2022-11-03T14:57:41;6.82;;;2.03;;
21675;SDS011;10999;51.332;9.458;2022-11-03T15:00:09;7.28;;;1.67;;
21675;SDS011;10999;51.332;9.458;2022-11-03T15:02:36;6.40;;;2.00;;
21675;SDS011;10999;51.332;9.458;2022-11-03T15:05:03;8.63;;;1.65;;
21675;SDS011;10999;51.332;9.458;2022-11-03T15:07:32;4.78;;;1.83;;
21675;SDS011;10999;51.332;9.458;2022-11-03T15:09:59;4.57;;;1.55;;
21675;SDS011;10999;51.332;9.458;2022-11-03T15:12:26;6.68;;;1.67;;
21675;SDS011;10999;51.332;9.458;2022-11-03T15:14:53;5.57;;;1.80;;
21675;SDS011;10999;51.332;9.458;2022-11-03T15:17:19;6.85;;;1.73;;
21675;SDS011;10999;51.332;9.458;2022-11-03T15:19:46;6.25;;;1.80;;
21675;SDS011;10999;51.332;9.458;2022-11-03T15:22:13;7.28;;;2.10;;
21675;SDS011;10999;51.332;9.458;2022-11-03T15:24:40;7.53;;;1.88;;
21675;SDS011;10999;51.332;9.458;2022-11-03T15:27:27;6.25;;;2.20;;
21675;SDS011;10999;51.332;9.458;2022-11-03T15:29:53;6.43;;;1.83;;
21675;SDS011;10999;51.332;9.458;2022-11-03T15:32:20;5.70;;;2.42;;
21675;SDS011;10999;51.332;9.458;2022-11-03T15:34:46;7.18;;;1.95;;
21675;SDS011;10999;51.332;9.458;2022-11-03T15:37:13;7.13;;;2.40;;
21675;SDS011;10999;51.332;9.458;2022-11-03T15:39:40;7.65;;;2.05;;
21675;SDS011;10999;51.332;9.458;2022-11-03T15:42:07;8.20;;;3.05;;
21675;SDS011;10999;51.332;9.458;2022-11-03T15:44:34;5.47;;;1.80;;
21675;SDS011;10999;51.332;9.458;2022-11-03T15:47:00;6.35;;;2.30;;
21675;SDS011;10999;51.332;9.458;2022-11-03T15:49:27;6.53;;;2.10;;
21675;SDS011;10999;51.332;9.458;2022-11-03T15:51:54;5.63;;;2.10;;
21675;SDS011;10999;51.332;9.458;2022-11-03T15:54:20;8.07;;;2.58;;
21675;SDS011;10999;51.332;9.458;2022-11-03T15:56:47;8.75;;;2.67;;
21675;SDS011;10999;51.332;9.458;2022-11-03T15:59:14;7.50;;;2.28;;
21675;SDS011;10999;51.332;9.458;2022-11-03T16:01:40;5.60;;;1.80;;
21675;SDS011;10999;51.332;9.458;2022-11-03T16:04:07;6.43;;;2.15;;
21675;SDS011;10999;51.332;9.458;2022-11-03T16:06:34;6.53;;;2.42;;
21675;SDS011;10999;51.332;9.458;2022-11-03T16:09:21;7.35;;;1.95;;
21675;SDS011;10999;51.332;9.458;2022-11-03T16:11:47;5.05;;;1.80;;
21675;SDS011;10999;51.332;9.458;2022-11-03T16:14:14;6.70;;;2.28;;
21675;SDS011;10999;51.332;9.458;2022-11-03T16:16:40;7.45;;;2.10;;
21675;SDS011;10999;51.332;9.458;2022-11-03T16:19:07;8.48;;;2.40;;
21675;SDS011;10999;51.332;9.458;2022-11-03T16:21:35;7.13;;;2.60;;
21675;SDS011;10999;51.332;9.458;2022-11-03T16:24:02;10.68;;;2.67;;
21675;SDS011;10999;51.332;9.458;2022-11-03T16:26:29;9.75;;;2.50;;
21675;SDS011;10999;51.332;9.458;2022-11-03T16:28:56;5.53;;;2.42;;
21675;SDS011;10999;51.332;9.458;2022-11-03T16:31:23;7.13;;;2.67;;
21675;SDS011;10999;51.332;9.458;2022-11-03T16:33:50;8.57;;;2.47;;
21675;SDS011;10999;51.332;9.458;2022-11-03T16:36:17;6.65;;;2.28;;
21675;SDS011;10999;51.332;9.458;2022-11-03T16:38:44;5.80;;;2.63;;
21675;SDS011;10999;51.332;9.458;2022-11-03T16:41:11;8.27;;;2.53;;
21675;SDS011;10999;51.332;9.458;2022-11-03T16:43:38;6.10;;;2.17;;
21675;SDS011;10999;51.332;9.458;2022-11-03T16:46:04;8.35;;;2.28;;
21675;SDS011;10999;51.332;9.458;2022-11-03T16:48:31;6.03;;;2.17;;